• Join FlightAware (Why Join?)
  • Login
  • US Flag 
12:29AM EDT


 

Airport Tracker/Info


-or-


 

Live Flight TrackerFlight Track Log ✈ EVA554 ✈ 07-Aug-2013 ✈ YCFS - YBBN / BNE

Flight Track Log - Related Links

Times and Time Zones

All times are in EDT time to prevent confusion due to time zone crossing. See the EVA554 flight status page for this flight to view local times or setup timezone preferences in your user account.

Time Position Orientation Groundspeed Altitude Reporting Facility
EDT Latitude Longitude Course Direction KTS MPH feet Rate Location/Type
09:50PM -30.1764 153.1095 358° North  Level FlightAware Approximate
09:51PM -30.1099 153.1063 358° North  Level FlightAware Approximate
09:51PM -30.2250 153.1187 358° North 173 199 5,000  Level Aus ATC (RADAR)
09:52PM -30.1795 153.1175 359° North 193 222 6,400 1,740 Climbing Aus ATC (RADAR)
09:53PM -30.1315 153.1139 356° North 185 213 8,100 1,740 Climbing Aus ATC (RADAR)
09:53PM -30.0963 153.1102 355° North 187 215 9,200 1,620 Climbing Aus ATC (RADAR)
09:54PM -30.0471 153.1109 North 191 220 10,700 1,440 Climbing Aus ATC (RADAR)
09:56PM -29.9451 153.1344 11° North 202 232 13,300 1,260 Climbing Aus ATC (RADAR)
09:57PM -29.8921 153.1472 12° North 214 246 14,300 1,140 Climbing Aus ATC (RADAR)
09:58PM -29.8428 153.1584 11° North 217 250 15,300 1,260 Climbing Aus ATC (RADAR)
09:58PM -29.8133 153.1654 12° North 215 247 16,000 1,080 Climbing Aus ATC (RADAR)
09:59PM -29.7834 153.1726 12° North 219 252 16,400 1,020 Climbing Aus ATC (RADAR)
10:00PM -29.7318 153.1820 North 223 257 17,400 720 Climbing Aus ATC (RADAR)
10:01PM -29.6351 153.2025 10° North 250 288 18,100 240 Climbing Aus ATC (RADAR)
10:02PM -29.5696 153.2175 11° North 232 267 18,000 -120 Descending Aus ATC (RADAR)
10:03PM -29.5294 153.2278 13° North 223 257 18,000  Level Aus ATC (RADAR)
10:04PM -29.4892 153.2385 13° North 223 257 18,000  Level Aus ATC (RADAR)
10:04PM -29.4335 153.2519 12° North 223 257 18,000  Level Aus ATC (RADAR)
10:06PM -29.3192 153.2844 14° North 218 251 18,000  Level Aus ATC (RADAR)
10:07PM -29.2588 153.2939 North 219 252 18,000  Level Aus ATC (RADAR)
10:08PM -29.2090 153.3013 North 215 247 18,000  Level Aus ATC (RADAR)
10:09PM -29.1707 153.2919 348° North 211 243 18,000  Level Aus ATC (RADAR)
10:10PM -29.1226 153.2824 350° North 210 242 18,000  Level Aus ATC (RADAR)
10:11PM -29.0346 153.2630 349° North 214 246 18,000  Level Aus ATC (RADAR)
10:12PM -28.9907 153.2529 349° North 214 246 18,000  Level Aus ATC (RADAR)
10:13PM -28.9419 153.2420 349° North 213 245 18,000  Level Aus ATC (RADAR)
10:14PM -28.8832 153.2286 349° North 214 246 18,000  Level Aus ATC (RADAR)
10:15PM -28.8358 153.2371 North 229 264 18,000  Level Aus ATC (RADAR)
10:16PM -28.7610 153.2535 11° North 235 270 18,000  Level Aus ATC (RADAR)
10:16PM -28.7187 153.2612 North 232 267 18,000  Level Aus ATC (RADAR)
10:17PM -28.6598 153.2645 North 229 264 18,000  Level Aus ATC (RADAR)
10:18PM -28.6117 153.2671 North 231 266 18,000  Level Aus ATC (RADAR)
10:19PM -28.5744 153.2688 North 229 264 18,000  Level Aus ATC (RADAR)
10:19PM -28.5168 153.2710 North 226 260 18,000 -240 Level Aus ATC (RADAR)
10:21PM -28.3725 153.2785 North 285 328 17,400 -540 Descending Aus ATC (RADAR)
10:22PM -28.2877 153.2850 North 309 356 16,500 -960 Descending Aus ATC (RADAR)
10:23PM -28.2216 153.2888 North 316 364 15,800 -960 Descending Aus ATC (RADAR)
10:24PM -28.1707 153.2925 North 316 364 15,300 -900 Descending Aus ATC (RADAR)
10:25PM -28.0946 153.2999 North 295 339 14,500 -1,320 Descending Aus ATC (RADAR)
10:26PM -27.9681 153.3150 North 286 329 12,100 -1,500 Descending Aus ATC (RADAR)
10:27PM -27.9158 153.2889 336° Northwest 274 315 11,000 -1,500 Descending Aus ATC (RADAR)
10:28PM -27.8413 153.2489 335° Northwest 273 314 9,400 -1,440 Descending Aus ATC (RADAR)
10:29PM -27.8015 153.2273 334° Northwest 272 313 8,600 -1,320 Descending Aus ATC (RADAR)
10:30PM -27.7398 153.1912 333° Northwest 245 282 7,400 -1,200 Descending Aus ATC (RADAR)
10:30PM -27.7090 153.1645 322° Northwest 240 276 6,700 -1,200 Descending Aus ATC (RADAR)
10:32PM -27.6289 153.1001 325° Northwest 231 266 5,000 -1,080 Descending Aus ATC (RADAR)
10:33PM -27.5825 153.0623 324° Northwest 223 257 4,100 -1,080 Descending Aus ATC (RADAR)
10:33PM -27.5422 153.0468 341° North 207 238 3,200 -1,320 Descending Aus ATC (RADAR)
10:34PM -27.5091 153.0583 17° North 184 212 2,300 -1,020 Descending Aus ATC (RADAR)
10:35PM -27.4740 153.0781 27° Northeast 150 173 1,600 -720 Descending Aus ATC (RADAR)
10:37PM -27.4202 153.1086 27° Northeast 116 133 500 -660 Descending Aus ATC (RADAR)
10:38PM -27.3935 153.1232 26° Northeast 112 129 -600 Descending Aus ATC (RADAR)